Time;durP1;ratioP1;P1;durP2;ratioP2;P2;SDS_P1;SDS_P2;PMS_P1;PMS_P2;Temp;Humidity;BMP_temperature;BMP_pressure;BME280_temperature;BME280_humidity;BME280_pressure;Samples;Min_cycle;Max_cycle;Signal;HPM_P1;HPM_P2
2023/01/09 00:00:15;;;;;;;7.38;2.13;;;7.10;99.90;;;;;;5072022;28;20044;-83
2023/01/09 00:02:43;;;;;;;4.03;1.83;;;7.10;99.90;;;;;;5053651;28;20048;-84
2023/01/09 00:05:14;;;;;;;4.88;1.85;;;7.10;99.90;;;;;;5071035;28;20394;-83
2023/01/09 00:07:40;;;;;;;4.32;1.77;;;7.10;99.90;;;;;;5071260;28;20055;-84
2023/01/09 00:10:06;;;;;;;4.75;1.92;;;7.10;99.90;;;;;;5070175;28;20041;-83
2023/01/09 00:12:32;;;;;;;6.45;2.00;;;7.00;99.90;;;;;;5070766;28;20048;-82
2023/01/09 00:14:58;;;;;;;3.08;1.70;;;7.00;99.90;;;;;;5070074;28;20468;-83
2023/01/09 00:17:24;;;;;;;3.35;1.73;;;7.00;99.90;;;;;;5069331;28;20078;-83
2023/01/09 00:19:50;;;;;;;4.68;2.00;;;7.00;99.90;;;;;;5070188;28;20075;-83
2023/01/09 00:22:15;;;;;;;4.30;1.95;;;7.10;99.90;;;;;;5070088;28;20044;-83
2023/01/09 00:24:41;;;;;;;5.78;1.95;;;7.00;99.90;;;;;;5070525;28;20044;-84
2023/01/09 00:27:07;;;;;;;2.58;1.63;;;7.10;99.90;;;;;;5070198;28;20482;-82
2023/01/09 00:29:33;;;;;;;2.95;1.90;;;7.00;99.90;;;;;;5070789;28;20473;-82
2023/01/09 00:31:58;;;;;;;5.25;1.98;;;7.00;99.90;;;;;;5070035;28;20094;-82
2023/01/09 00:34:25;;;;;;;6.38;1.70;;;7.00;99.90;;;;;;5070682;28;20048;-83
2023/01/09 00:36:54;;;;;;;;;;;7.10;99.90;;;;;;5070324;28;20048;-83
2023/01/09 00:39:21;;;;;;;5.97;1.85;;;7.10;99.90;;;;;;5070245;28;19920;-82
2023/01/09 00:41:50;;;;;;;6.07;1.70;;;7.20;99.90;;;;;;5071108;28;20059;-82
2023/01/09 00:44:26;;;;;;;4.53;2.15;;;7.20;99.90;;;;;;5070868;28;20044;-83
2023/01/09 00:46:58;;;;;;;5.73;2.23;;;7.20;99.90;;;;;;5068217;28;20049;-82
2023/01/09 00:49:26;;;;;;;3.78;1.48;;;7.20;99.90;;;;;;5071058;28;20279;-82
2023/01/09 00:51:54;;;;;;;6.50;1.98;;;7.30;99.90;;;;;;5069431;28;20067;-82
2023/01/09 00:54:20;;;;;;;11.15;2.40;;;7.40;99.90;;;;;;5069946;28;20048;-82
2023/01/09 00:56:46;;;;;;;;;;;7.40;99.90;;;;;;5071344;28;20044;-84
2023/01/09 00:59:12;;;;;;;4.85;2.13;;;7.40;99.90;;;;;;5070242;28;19920;-81
2023/01/09 01:01:37;;;;;;;4.55;2.10;;;7.40;99.90;;;;;;5069970;28;20060;-80
2023/01/09 01:07:37;;;;;;;5.15;2.05;;;7.30;99.90;;;;;;5070653;28;20127;-79
2023/01/09 01:09:33;;;;;;;2.28;1.63;;;7.20;99.90;;;;;;5070991;28;20063;-79
2023/01/09 01:12:00;;;;;;;1.27;1.10;;;7.20;99.90;;;;;;5070593;28;20045;-80
2023/01/09 01:14:26;;;;;;;3.13;1.77;;;7.10;99.90;;;;;;5070991;28;20045;-79
2023/01/09 01:16:52;;;;;;;2.45;1.58;;;7.10;99.90;;;;;;5070625;28;20060;-78
2023/01/09 01:19:18;;;;;;;3.70;2.05;;;7.10;99.90;;;;;;5070197;28;20067;-78
2023/01/09 01:21:43;;;;;;;5.63;2.33;;;7.10;99.90;;;;;;5070929;28;20083;-79
2023/01/09 01:24:09;;;;;;;5.53;2.63;;;7.10;99.90;;;;;;5070107;28;20048;-78
2023/01/09 01:26:35;;;;;;;6.53;2.70;;;7.10;99.90;;;;;;5071098;28;20055;-79
2023/01/09 01:29:00;;;;;;;8.60;3.00;;;7.10;99.90;;;;;;5072129;28;20052;-78
2023/01/09 01:31:26;;;;;;;4.13;2.63;;;7.10;99.90;;;;;;5074449;28;20123;-79
2023/01/09 01:33:52;;;;;;;5.57;2.42;;;7.10;99.90;;;;;;5073118;28;20048;-80
2023/01/09 01:36:17;;;;;;;5.22;2.60;;;7.20;99.90;;;;;;5074035;28;20049;-79
2023/01/09 01:38:43;;;;;;;3.70;1.98;;;7.10;99.90;;;;;;5074028;28;20044;-79
2023/01/09 01:41:09;;;;;;;5.68;2.00;;;7.10;99.90;;;;;;5073811;28;20040;-79
2023/01/09 01:44:02;;;;;;;5.05;2.20;;;7.10;99.90;;;;;;5074472;28;20083;-79
2023/01/09 01:46:29;;;;;;;6.20;1.90;;;7.10;99.90;;;;;;5071506;28;20092;-79
2023/01/09 01:49:02;;;;;;;7.93;2.00;;;7.00;99.90;;;;;;5073980;28;20057;-79
2023/01/09 01:51:31;;;;;;;4.43;1.58;;;7.00;99.90;;;;;;5074229;28;20052;-79
2023/01/09 01:54:01;;;;;;;6.53;2.00;;;7.00;99.90;;;;;;5073533;28;20044;-79
2023/01/09 01:56:36;;;;;;;2.45;1.52;;;7.00;99.90;;;;;;5072987;28;20092;-79
2023/01/09 01:59:08;;;;;;;5.35;1.83;;;7.00;99.90;;;;;;5073975;28;20052;-79
2023/01/09 02:01:39;;;;;;;3.72;1.58;;;6.90;99.90;;;;;;5073881;28;20094;-80
2023/01/09 02:04:05;;;;;;;3.38;1.35;;;6.90;99.90;;;;;;5073684;28;20045;-80
2023/01/09 02:06:32;;;;;;;;;;;6.90;99.90;;;;;;5074234;28;20040;-80
2023/01/09 02:08:58;;;;;;;2.67;1.45;;;6.80;99.90;;;;;;5073274;28;19974;-79
2023/01/09 02:11:24;;;;;;;1.98;1.27;;;6.80;99.90;;;;;;5074200;28;20110;-79
2023/01/09 02:13:50;;;;;;;2.97;1.15;;;6.80;99.90;;;;;;5073626;28;20044;-80
2023/01/09 02:16:55;;;;;;;2.30;1.60;;;6.80;99.90;;;;;;5071783;28;20061;-79
2023/01/09 02:19:56;;;;;;;4.00;1.23;;;6.70;99.90;;;;;;5073857;28;20106;-78
2023/01/09 02:22:37;;;;;;;2.38;1.20;;;6.70;99.90;;;;;;5073094;28;20041;-79
2023/01/09 02:25:06;;;;;;;4.40;1.05;;;6.60;99.90;;;;;;5073219;28;20071;-79
2023/01/09 02:27:53;;;;;;;2.20;1.10;;;6.60;99.90;;;;;;5073331;28;20045;-79
2023/01/09 02:31:07;;;;;;;1.48;1.00;;;6.50;99.90;;;;;;5072421;28;20078;-79
2023/01/09 02:33:47;;;;;;;4.90;1.20;;;6.50;99.90;;;;;;4994508;28;20050;-79
2023/01/09 02:36:36;;;;;;;1.40;1.00;;;6.40;99.90;;;;;;5010407;28;20304;-80
2023/01/09 02:39:08;;;;;;;3.08;1.30;;;6.40;99.90;;;;;;5059158;28;20130;-79
2023/01/09 02:41:52;;;;;;;2.55;1.38;;;6.40;99.90;;;;;;5072720;28;20131;-79
2023/01/09 02:44:24;;;;;;;1.55;1.08;;;6.40;99.90;;;;;;5073205;28;20053;-78
2023/01/09 02:47:05;;;;;;;2.35;1.20;;;6.40;99.90;;;;;;5073124;28;20119;-79
2023/01/09 02:49:33;;;;;;;3.28;1.20;;;6.30;99.90;;;;;;5073169;28;20056;-79
2023/01/09 02:52:24;;;;;;;1.95;1.20;;;6.30;99.90;;;;;;5071604;28;20048;-80
2023/01/09 02:55:06;;;;;;;6.30;1.13;;;6.30;99.90;;;;;;5072978;28;20051;-80
2023/01/09 02:58:06;;;;;;;2.88;1.40;;;6.20;99.90;;;;;;5072974;28;20087;-79
2023/01/09 03:00:57;;;;;;;3.05;1.35;;;6.10;99.90;;;;;;5071876;28;20355;-79
2023/01/09 03:03:33;;;;;;;3.60;1.13;;;6.10;99.90;;;;;;5072756;28;20131;-79
2023/01/09 03:06:04;;;;;;;6.75;1.67;;;6.10;99.90;;;;;;5072338;28;20052;-82
2023/01/09 03:08:37;;;;;;;4.05;1.65;;;5.90;99.90;;;;;;5071487;28;20052;-79
2023/01/09 03:11:05;;;;;;;7.70;1.60;;;5.90;99.90;;;;;;5072506;28;20087;-79
2023/01/09 03:14:00;;;;;;;1.63;1.20;;;5.80;99.90;;;;;;5072787;28;20051;-79
2023/01/09 03:16:35;;;;;;;4.05;1.73;;;5.70;99.90;;;;;;5070883;28;20052;-79
2023/01/09 03:19:04;;;;;;;2.78;1.42;;;5.70;99.90;;;;;;5072297;28;20102;-79
2023/01/09 03:21:31;;;;;;;6.70;2.60;;;5.60;99.90;;;;;;5072442;28;20105;-79
2023/01/09 03:24:00;;;;;;;6.30;1.90;;;5.60;99.90;;;;;;5071529;28;20098;-84
2023/01/09 03:26:28;;;;;;;7.78;1.85;;;5.60;99.90;;;;;;5071409;28;20059;-79
2023/01/09 03:28:54;;;;;;;6.10;1.88;;;5.60;99.90;;;;;;5072534;28;20049;-79
2023/01/09 03:31:20;;;;;;;3.88;1.98;;;5.60;99.90;;;;;;5070679;28;20086;-80
2023/01/09 03:33:45;;;;;;;8.50;1.77;;;5.50;99.90;;;;;;5072349;28;20052;-79
2023/01/09 03:36:12;;;;;;;5.32;1.80;;;5.30;99.90;;;;;;5070664;28;20080;-80
2023/01/09 03:38:38;;;;;;;3.35;1.90;;;5.30;99.90;;;;;;5071896;28;20048;-80
2023/01/09 03:41:04;;;;;;;8.95;1.70;;;5.20;99.90;;;;;;5071867;28;20090;-81
2023/01/09 03:43:30;;;;;;;4.22;1.75;;;5.10;99.90;;;;;;5071977;28;20040;-79
2023/01/09 03:45:56;;;;;;;3.67;2.05;;;5.00;99.90;;;;;;5071913;28;20453;-80
2023/01/09 03:48:22;;;;;;;;;;;5.10;99.90;;;;;;5072105;28;20094;-80
2023/01/09 03:50:52;;;;;;;3.58;1.70;;;5.00;99.90;;;;;;5072158;28;20389;-82
2023/01/09 03:53:19;;;;;;;3.92;2.13;;;5.00;99.90;;;;;;5070398;28;20044;-79
2023/01/09 03:55:50;;;;;;;5.63;2.17;;;5.00;99.90;;;;;;5072029;28;20060;-80
2023/01/09 03:58:16;;;;;;;6.57;2.33;;;5.00;99.90;;;;;;5071588;28;20048;-80
2023/01/09 04:00:44;;;;;;;5.45;2.17;;;5.00;99.90;;;;;;5072022;28;20409;-80
2023/01/09 04:03:11;;;;;;;7.20;1.92;;;4.90;99.90;;;;;;5071028;28;20053;-79
2023/01/09 04:05:37;;;;;;;6.70;2.33;;;4.90;99.90;;;;;;5071706;28;20045;-81
2023/01/09 04:08:03;;;;;;;;;;;4.80;99.90;;;;;;5071380;28;20040;-80
2023/01/09 04:10:29;;;;;;;8.00;2.42;;;4.80;99.90;;;;;;5070963;28;20384;-80
2023/01/09 04:12:55;;;;;;;5.57;2.53;;;5.00;99.90;;;;;;5071789;28;20098;-79
2023/01/09 04:15:21;;;;;;;5.47;2.70;;;4.70;99.90;;;;;;5071167;28;20528;-80
2023/01/09 04:17:46;;;;;;;5.55;2.55;;;4.80;99.90;;;;;;5070294;28;20115;-80
2023/01/09 04:20:12;;;;;;;9.52;3.83;;;4.80;99.90;;;;;;5070470;28;20094;-80
2023/01/09 04:22:39;;;;;;;14.35;4.45;;;4.90;99.90;;;;;;5070085;28;20458;-80
2023/01/09 04:25:05;;;;;;;8.85;3.33;;;4.90;99.90;;;;;;5071312;28;20137;-80
2023/01/09 04:27:30;;;;;;;11.38;4.15;;;4.90;99.90;;;;;;5071322;28;20132;-80
2023/01/09 04:29:56;;;;;;;10.70;5.07;;;5.20;99.90;;;;;;5071729;28;20049;-80
2023/01/09 04:32:22;;;;;;;10.23;4.30;;;5.10;99.90;;;;;;5071002;28;20091;-80
2023/01/09 04:34:47;;;;;;;16.42;4.32;;;5.10;99.90;;;;;;5071679;28;20584;-80
2023/01/09 04:37:13;;;;;;;10.90;4.10;;;5.10;99.90;;;;;;5069615;28;20052;-80
2023/01/09 04:39:42;;;;;;;12.80;5.00;;;5.10;99.90;;;;;;5071770;28;20048;-80
2023/01/09 04:42:08;;;;;;;11.20;4.10;;;4.90;99.90;;;;;;5071116;28;20049;-81
2023/01/09 04:44:34;;;;;;;12.00;4.50;;;5.00;99.90;;;;;;5070581;28;20132;-80
2023/01/09 04:47:02;;;;;;;10.75;4.03;;;4.80;99.90;;;;;;5071449;28;20123;-81
2023/01/09 04:49:28;;;;;;;15.40;5.32;;;5.00;99.90;;;;;;5071457;28;20131;-80
2023/01/09 04:51:53;;;;;;;11.50;5.30;;;4.80;99.90;;;;;;5071405;28;20098;-79
2023/01/09 04:54:19;;;;;;;14.60;5.65;;;4.80;99.90;;;;;;5070449;28;20045;-80
2023/01/09 04:56:45;;;;;;;15.50;5.28;;;4.70;99.90;;;;;;5070227;28;20470;-79
2023/01/09 04:59:11;;;;;;;13.82;5.38;;;4.70;99.90;;;;;;5071092;28;20141;-79
2023/01/09 05:01:37;;;;;;;11.00;4.57;;;4.70;99.90;;;;;;5053671;28;20052;-80
2023/01/09 05:04:04;;;;;;;12.45;5.38;;;4.80;99.90;;;;;;5071658;28;20045;-84
2023/01/09 05:06:30;;;;;;;15.88;5.00;;;4.70;99.90;;;;;;5075028;28;20182;-80
2023/01/09 05:08:56;;;;;;;23.00;5.55;;;4.90;99.90;;;;;;5074803;28;20119;-80
2023/01/09 05:11:22;;;;;;;16.60;5.18;;;4.80;99.90;;;;;;5074728;28;20527;-79
2023/01/09 05:13:48;;;;;;;11.25;4.75;;;4.80;99.90;;;;;;5075117;28;20044;-79
2023/01/09 05:16:14;;;;;;;14.48;4.97;;;4.80;99.90;;;;;;5074468;28;20495;-80
2023/01/09 05:18:39;;;;;;;13.65;5.18;;;4.90;99.90;;;;;;5073989;28;20055;-80
2023/01/09 05:21:05;;;;;;;16.40;4.00;;;4.80;99.90;;;;;;5073401;28;20044;-83
2023/01/09 05:23:31;;;;;;;13.43;4.72;;;4.90;99.90;;;;;;5056804;28;20051;-79
2023/01/09 05:25:56;;;;;;;14.13;4.68;;;4.80;99.90;;;;;;5074809;28;20051;-79
2023/01/09 05:28:22;;;;;;;8.68;4.15;;;4.70;99.90;;;;;;5074420;28;20044;-79
2023/01/09 05:30:48;;;;;;;12.50;4.65;;;4.80;99.90;;;;;;5074795;28;20056;-81
2023/01/09 05:33:14;;;;;;;13.30;4.35;;;4.70;99.90;;;;;;5073187;28;20048;-79
2023/01/09 05:35:39;;;;;;;12.73;4.07;;;4.60;99.90;;;;;;5073643;28;20044;-79
2023/01/09 05:38:05;;;;;;;14.38;4.78;;;4.90;99.90;;;;;;5072512;28;20066;-84
2023/01/09 05:40:31;;;;;;;12.57;4.82;;;4.70;99.90;;;;;;5073684;28;20150;-79
2023/01/09 05:42:56;;;;;;;12.55;4.20;;;4.70;99.90;;;;;;5073490;28;20470;-79
2023/01/09 05:45:22;;;;;;;10.32;4.32;;;4.60;99.90;;;;;;5072745;28;20378;-81
2023/01/09 05:47:48;;;;;;;14.73;4.22;;;4.90;99.90;;;;;;5074063;28;20044;-79
2023/01/09 05:50:14;;;;;;;11.75;4.22;;;4.70;99.90;;;;;;5074150;28;20667;-79
2023/01/09 05:52:39;;;;;;;;;;;4.60;99.90;;;;;;5074172;28;20052;-79
2023/01/09 05:55:06;;;;;;;11.27;4.18;;;4.60;99.90;;;;;;5074026;28;20370;-84
2023/01/09 05:57:32;;;;;;;10.77;4.78;;;4.60;99.90;;;;;;5073050;28;20129;-79
2023/01/09 05:59:58;;;;;;;15.63;4.55;;;4.60;99.90;;;;;;5074294;28;20485;-80
2023/01/09 06:02:24;;;;;;;10.85;4.13;;;4.60;99.90;;;;;;5073264;28;20045;-80
2023/01/09 06:04:50;;;;;;;11.48;4.20;;;4.60;99.90;;;;;;5074103;28;20466;-80
2023/01/09 06:07:15;;;;;;;10.80;4.38;;;4.60;99.90;;;;;;5071817;28;20060;-82
2023/01/09 06:09:41;;;;;;;11.85;4.45;;;4.50;99.90;;;;;;5073700;28;20044;-81
2023/01/09 06:12:07;;;;;;;8.10;3.63;;;4.60;99.90;;;;;;5073297;28;20470;-84
2023/01/09 06:14:33;;;;;;;13.77;4.28;;;4.70;99.90;;;;;;5073429;28;20063;-80
2023/01/09 06:16:58;;;;;;;10.05;3.78;;;4.80;99.90;;;;;;5071903;28;20448;-80
2023/01/09 06:19:24;;;;;;;9.50;3.70;;;4.80;99.90;;;;;;5072305;28;20040;-80
2023/01/09 06:21:52;;;;;;;12.20;3.58;;;5.00;99.90;;;;;;5073599;28;20052;-80
2023/01/09 06:24:18;;;;;;;7.28;3.17;;;5.00;99.90;;;;;;5073052;28;20135;-80
2023/01/09 06:26:43;;;;;;;10.35;3.28;;;5.10;99.90;;;;;;5056004;28;20136;-80
2023/01/09 06:29:09;;;;;;;6.93;2.92;;;5.00;99.90;;;;;;5073428;28;20066;-83
2023/01/09 06:31:35;;;;;;;13.73;3.00;;;5.00;99.90;;;;;;5073443;28;20482;-80
2023/01/09 06:34:01;;;;;;;8.55;3.30;;;4.90;99.90;;;;;;5072330;28;20052;-81
2023/01/09 06:36:26;;;;;;;10.57;2.80;;;4.90;99.90;;;;;;5071790;28;20056;-81
2023/01/09 06:38:52;;;;;;;6.65;2.78;;;4.90;99.90;;;;;;5073450;28;20052;-81
2023/01/09 06:41:18;;;;;;;5.80;2.67;;;4.70;99.90;;;;;;5072910;28;20052;-82
2023/01/09 06:43:43;;;;;;;9.80;2.35;;;4.90;99.90;;;;;;5073505;28;20127;-82
2023/01/09 06:46:09;;;;;;;8.05;2.50;;;4.70;99.90;;;;;;5073173;28;20063;-85
2023/01/09 06:48:35;;;;;;;9.20;2.35;;;4.60;99.90;;;;;;5073158;28;20048;-81
2023/01/09 06:51:00;;;;;;;7.65;2.50;;;4.50;99.90;;;;;;5072776;28;20051;-82
2023/01/09 06:53:26;;;;;;;7.43;2.55;;;4.50;99.90;;;;;;5071118;28;20049;-81
2023/01/09 06:55:52;;;;;;;5.28;2.47;;;4.50;99.90;;;;;;5073002;28;20044;-82
2023/01/09 06:58:19;;;;;;;6.82;2.55;;;4.40;99.90;;;;;;5071384;28;20106;-81
2023/01/09 07:00:45;;;;;;;7.10;2.63;;;4.50;99.90;;;;;;5073092;28;20044;-81
2023/01/09 07:03:14;;;;;;;8.57;2.70;;;4.50;99.90;;;;;;5071407;28;20079;-84
2023/01/09 07:05:41;;;;;;;7.93;2.90;;;4.40;99.90;;;;;;5072941;28;20127;-81
2023/01/09 07:08:08;;;;;;;7.05;3.10;;;4.50;99.90;;;;;;5071255;28;20060;-82
2023/01/09 07:10:34;;;;;;;13.02;3.10;;;4.40;99.90;;;;;;5071280;28;20367;-82
2023/01/09 07:12:59;;;;;;;7.75;2.80;;;4.60;99.90;;;;;;5072713;28;20074;-81
2023/01/09 07:15:25;;;;;;;5.88;2.60;;;4.50;99.90;;;;;;5072041;28;20052;-81
2023/01/09 07:17:52;;;;;;;6.95;2.30;;;4.50;99.90;;;;;;5071312;28;20086;-81
2023/01/09 07:20:18;;;;;;;7.32;2.88;;;4.50;99.90;;;;;;5072354;28;20344;-81
2023/01/09 07:22:44;;;;;;;10.80;2.60;;;4.60;99.90;;;;;;5071007;28;20155;-81
2023/01/09 07:25:10;;;;;;;;;;;4.60;99.90;;;;;;5072626;28;20088;-84
2023/01/09 07:27:35;;;;;;;10.82;2.58;;;4.60;99.90;;;;;;5070939;28;19920;-82
2023/01/09 07:30:02;;;;;;;8.30;2.65;;;4.70;99.90;;;;;;5071508;28;20059;-81
2023/01/09 07:32:28;;;;;;;5.47;2.33;;;5.00;99.90;;;;;;5070745;28;20044;-81
2023/01/09 07:34:53;;;;;;;10.73;3.30;;;4.80;99.90;;;;;;5072350;28;20127;-81
2023/01/09 07:37:19;;;;;;;5.28;2.38;;;4.90;99.90;;;;;;5070052;28;20041;-84
2023/01/09 07:39:45;;;;;;;7.10;2.97;;;4.90;99.90;;;;;;5072379;28;20521;-84
2023/01/09 07:42:11;;;;;;;7.43;2.40;;;5.00;99.90;;;;;;5071172;28;20124;-82
2023/01/09 07:44:36;;;;;;;5.88;2.65;;;5.10;99.90;;;;;;5070598;28;20566;-83
2023/01/09 07:47:02;;;;;;;9.45;2.63;;;5.00;99.90;;;;;;5072004;28;20134;-84
2023/01/09 07:49:28;;;;;;;9.35;2.72;;;5.00;99.90;;;;;;5070812;28;20052;-83
2023/01/09 07:51:54;;;;;;;7.53;2.25;;;5.60;99.90;;;;;;5071599;28;20040;-83
2023/01/09 07:54:20;;;;;;;;;;;5.10;99.90;;;;;;5070747;28;20057;-84
2023/01/09 07:56:46;;;;;;;5.75;2.30;;;5.30;99.90;;;;;;5071919;28;19921;-84
2023/01/09 07:59:13;;;;;;;;;;;5.20;99.90;;;;;;5072474;28;20040;-84
2023/01/09 08:01:38;;;;;;;8.68;2.72;;;5.20;99.90;;;;;;5071600;28;19982;-84
2023/01/09 08:04:04;;;;;;;7.22;2.42;;;5.20;99.90;;;;;;5071358;28;20084;-84
2023/01/09 08:06:30;;;;;;;10.27;2.35;;;5.30;99.90;;;;;;5070238;28;20044;-83
2023/01/09 08:08:57;;;;;;;7.13;2.67;;;5.30;99.90;;;;;;5071506;28;20048;-84
2023/01/09 08:11:23;;;;;;;4.82;2.03;;;5.50;99.90;;;;;;5070082;28;20089;-83
2023/01/09 08:13:49;;;;;;;7.57;2.42;;;5.40;99.90;;;;;;5071861;28;20064;-84
2023/01/09 08:16:15;;;;;;;11.50;2.80;;;5.50;99.90;;;;;;5070026;28;20137;-87
2023/01/09 08:18:41;;;;;;;7.47;3.08;;;5.40;99.90;;;;;;5070375;28;20128;-85
2023/01/09 08:21:07;;;;;;;10.82;2.38;;;5.70;99.90;;;;;;5070559;28;20155;-86
2023/01/09 08:23:33;;;;;;;4.45;2.13;;;5.50;99.90;;;;;;5070032;28;20047;-85
2023/01/09 08:25:58;;;;;;;7.13;2.15;;;5.50;99.90;;;;;;5071768;28;20058;-83
2023/01/09 08:28:24;;;;;;;8.23;2.88;;;5.50;99.90;;;;;;5070426;28;20482;-85
2023/01/09 08:30:50;;;;;;;7.15;2.70;;;5.50;99.90;;;;;;5070481;28;20048;-83
2023/01/09 08:33:16;;;;;;;9.05;2.70;;;5.60;99.90;;;;;;5070702;28;20483;-86
2023/01/09 08:35:43;;;;;;;8.30;2.33;;;5.60;99.90;;;;;;5070186;28;20048;-84
2023/01/09 08:38:09;;;;;;;7.97;2.17;;;5.60;99.90;;;;;;5070895;28;20032;-83
2023/01/09 08:40:35;;;;;;;8.00;2.78;;;5.60;99.90;;;;;;5074409;28;20049;-82
2023/01/09 08:48:30;;;;;;;11.98;2.60;;;5.60;99.90;;;;;;5075013;28;20525;-80
2023/01/09 08:50:55;;;;;;;7.35;2.35;;;5.60;99.90;;;;;;5057701;28;20057;-77
2023/01/09 08:53:21;;;;;;;5.85;2.17;;;5.60;99.90;;;;;;5074704;28;20478;-81
2023/01/09 08:55:47;;;;;;;9.60;2.45;;;5.70;99.90;;;;;;5074253;28;20140;-80
2023/01/09 08:58:12;;;;;;;10.52;2.97;;;5.70;99.90;;;;;;5074968;28;20474;-86
2023/01/09 09:00:38;;;;;;;8.98;2.30;;;5.70;99.90;;;;;;5074112;28;20056;-83
2023/01/09 09:03:04;;;;;;;7.30;2.42;;;5.80;99.90;;;;;;5075062;28;20123;-83
2023/01/09 09:05:30;;;;;;;10.50;2.17;;;5.80;99.90;;;;;;5073971;28;20048;-82
2023/01/09 09:07:57;;;;;;;12.65;2.25;;;5.90;99.90;;;;;;5072982;28;20060;-80
2023/01/09 09:10:25;;;;;;;9.27;2.10;;;6.00;99.90;;;;;;5073850;28;20044;-83
2023/01/09 09:12:53;;;;;;;9.00;2.17;;;6.00;99.90;;;;;;5075077;28;20056;-76
2023/01/09 09:15:24;;;;;;;13.00;2.63;;;5.90;99.90;;;;;;5074637;28;20109;-80
2023/01/09 09:18:00;;;;;;;14.15;3.15;;;5.90;99.90;;;;;;5074267;28;20118;-76
2023/01/09 09:20:30;;;;;;;6.72;2.35;;;6.00;99.90;;;;;;5073677;28;20059;-80
2023/01/09 09:22:55;;;;;;;7.72;2.85;;;6.00;99.90;;;;;;5073271;28;20045;-75
2023/01/09 09:25:22;;;;;;;7.65;2.25;;;6.10;99.90;;;;;;5074813;28;20097;-76
2023/01/09 09:27:47;;;;;;;8.50;2.63;;;6.10;99.90;;;;;;5074454;28;20490;-69
2023/01/09 09:30:16;;;;;;;7.15;2.55;;;6.20;99.90;;;;;;5074754;28;20070;-75
2023/01/09 09:32:42;;;;;;;10.48;2.95;;;6.20;99.90;;;;;;5073817;28;20275;-74
2023/01/09 09:35:09;;;;;;;13.10;2.83;;;6.20;99.90;;;;;;5073457;28;20055;-74
2023/01/09 09:37:35;;;;;;;7.65;2.17;;;6.20;99.90;;;;;;5072932;28;20095;-76
2023/01/09 09:40:01;;;;;;;9.38;1.90;;;6.30;99.90;;;;;;5074354;28;20289;-75
2023/01/09 09:45:42;;;;;;;5.45;2.40;;;6.40;99.90;;;;;;5073653;28;20071;-74
2023/01/09 09:48:19;;;;;;;5.55;2.00;;;6.40;99.90;;;;;;5074091;28;20047;-74
2023/01/09 09:50:48;;;;;;;10.23;2.67;;;6.50;99.90;;;;;;5074012;28;20054;-74
2023/01/09 09:53:41;;;;;;;3.05;1.80;;;6.40;99.90;;;;;;5072837;28;20040;-75
2023/01/09 09:56:12;;;;;;;9.23;2.10;;;6.50;99.90;;;;;;5074269;28;20041;-78
2023/01/09 09:58:46;;;;;;;9.60;1.92;;;6.50;99.90;;;;;;5073804;28;20055;-78
2023/01/09 10:01:18;;;;;;;5.55;1.80;;;6.50;99.90;;;;;;5073280;28;20367;-78
2023/01/09 10:04:00;;;;;;;6.47;2.13;;;6.50;99.90;;;;;;5072338;28;20048;-78
2023/01/09 10:06:33;;;;;;;6.57;1.60;;;6.50;99.90;;;;;;5072188;28;20045;-79
2023/01/09 10:09:25;;;;;;;3.20;1.60;;;6.50;99.90;;;;;;5071706;28;20599;-77
2023/01/09 10:12:21;;;;;;;6.43;1.77;;;6.50;99.90;;;;;;5072876;28;20048;-77
2023/01/09 10:14:47;;;;;;;4.05;1.85;;;6.50;99.90;;;;;;5072298;28;20092;-78
2023/01/09 10:17:34;;;;;;;6.22;1.80;;;6.50;99.90;;;;;;5072679;28;20441;-78
2023/01/09 10:20:08;;;;;;;4.85;1.70;;;6.50;99.90;;;;;;5072849;28;20067;-78
2023/01/09 10:23:01;;;;;;;7.68;1.83;;;6.40;99.90;;;;;;5071897;28;20093;-74
2023/01/09 10:25:44;;;;;;;4.60;1.75;;;6.50;99.90;;;;;;5072207;28;20074;-81
2023/01/09 10:28:31;;;;;;;5.38;1.70;;;6.40;99.90;;;;;;5072816;28;20094;-74
2023/01/09 10:31:17;;;;;;;9.23;2.15;;;6.40;99.90;;;;;;5072394;28;20474;-76
2023/01/09 10:34:43;;;;;;;4.35;2.40;;;6.40;99.90;;;;;;5072267;28;20571;-77
2023/01/09 10:37:20;;;;;;;4.78;2.40;;;6.40;99.90;;;;;;5010395;28;20078;-77
2023/01/09 10:40:17;;;;;;;7.65;1.98;;;6.40;99.90;;;;;;5010830;28;20125;-74
2023/01/09 10:42:46;;;;;;;4.57;1.93;;;6.40;99.90;;;;;;5032261;28;20453;-73
2023/01/09 10:45:30;;;;;;;5.50;2.20;;;6.40;99.90;;;;;;5073290;28;20052;-76
2023/01/09 10:48:14;;;;;;;4.18;2.17;;;6.40;99.90;;;;;;5072612;28;20045;-78
2023/01/09 10:50:44;;;;;;;5.82;2.10;;;6.40;99.90;;;;;;5071687;28;20123;-75
2023/01/09 10:53:34;;;;;;;9.13;2.38;;;6.50;99.90;;;;;;5071696;28;20052;-75
2023/01/09 10:56:07;;;;;;;5.75;2.67;;;6.50;99.90;;;;;;5072211;28;20401;-74
2023/01/09 10:58:33;;;;;;;10.75;2.67;;;6.50;99.90;;;;;;5071506;28;20120;-76
2023/01/09 11:01:00;;;;;;;7.97;2.40;;;6.50;99.90;;;;;;5071810;28;20094;-76
2023/01/09 11:03:27;;;;;;;7.70;2.70;;;6.40;99.90;;;;;;5071599;28;20052;-75
2023/01/09 11:05:56;;;;;;;7.28;3.15;;;6.40;99.90;;;;;;5071543;28;20052;-73
2023/01/09 11:08:22;;;;;;;6.63;2.60;;;6.50;99.90;;;;;;5071275;28;20127;-76
2023/01/09 11:10:49;;;;;;;6.00;2.67;;;6.50;99.90;;;;;;5071152;28;20135;-74
2023/01/09 11:13:24;;;;;;;8.77;3.25;;;6.50;99.90;;;;;;5071858;28;20422;-75
2023/01/09 11:16:16;;;;;;;6.60;2.75;;;6.50;99.90;;;;;;5071457;28;20649;-76
2023/01/09 11:18:54;;;;;;;6.97;2.50;;;6.50;99.90;;;;;;5064461;28;20045;-76
2023/01/09 11:21:39;;;;;;;6.10;2.35;;;6.40;99.90;;;;;;5071611;28;20079;-76
2023/01/09 11:24:20;;;;;;;6.00;2.58;;;6.70;99.90;;;;;;5070194;28;20060;-76
2023/01/09 11:26:48;;;;;;;4.90;2.30;;;6.40;99.90;;;;;;5070953;28;20040;-76
2023/01/09 11:29:16;;;;;;;9.68;2.90;;;6.40;99.90;;;;;;5071303;28;20410;-74
2023/01/09 11:31:50;;;;;;;7.22;2.85;;;6.40;99.90;;;;;;5070418;28;20087;-77
2023/01/09 11:34:18;;;;;;;8.30;3.35;;;6.40;99.90;;;;;;5070605;28;20044;-78
2023/01/09 11:36:45;;;;;;;5.97;3.15;;;6.40;99.90;;;;;;5070079;28;20131;-75
2023/01/09 11:39:31;;;;;;;8.73;3.40;;;6.40;99.90;;;;;;5068639;28;20712;-76
2023/01/09 11:42:00;;;;;;;10.13;3.55;;;6.40;99.90;;;;;;5070863;28;20048;-75
2023/01/09 11:44:28;;;;;;;6.70;2.97;;;6.40;99.90;;;;;;5053228;28;20114;-76
2023/01/09 11:46:54;;;;;;;8.15;3.17;;;6.40;99.90;;;;;;5070236;28;20040;-74
2023/01/09 11:49:26;;;;;;;8.88;3.17;;;6.40;99.90;;;;;;5071619;28;20044;-77
2023/01/09 11:52:14;;;;;;;8.68;3.40;;;6.40;99.90;;;;;;5070361;28;20080;-73
2023/01/09 11:54:57;;;;;;;11.98;3.25;;;6.40;99.90;;;;;;5071157;28;20071;-74
2023/01/09 11:57:24;;;;;;;7.93;3.25;;;6.40;99.90;;;;;;5071903;28;20043;-73
2023/01/09 11:59:50;;;;;;;6.53;3.20;;;6.40;99.90;;;;;;5071276;28;20482;-73
2023/01/09 12:02:22;;;;;;;11.23;4.00;;;6.50;99.90;;;;;;5071660;28;20044;-73
2023/01/09 12:04:56;;;;;;;8.57;3.80;;;6.40;99.90;;;;;;5070079;28;20063;-74
2023/01/09 12:07:30;;;;;;;12.48;4.18;;;6.50;99.90;;;;;;5070456;28;20473;-76
2023/01/09 12:10:01;;;;;;;9.35;4.10;;;6.40;99.90;;;;;;5070433;28;20514;-74
2023/01/09 12:13:06;;;;;;;10.13;4.13;;;6.50;99.90;;;;;;5070872;28;20044;-75
2023/01/09 12:15:57;;;;;;;9.85;4.20;;;6.50;99.90;;;;;;5039129;28;20058;-73
2023/01/09 12:18:55;;;;;;;10.88;4.13;;;6.50;99.90;;;;;;5071521;28;20072;-73
2023/01/09 12:21:39;;;;;;;9.75;4.57;;;6.60;99.90;;;;;;5016311;28;20057;-74
2023/01/09 12:24:19;;;;;;;12.55;4.75;;;6.60;99.90;;;;;;5069881;28;20044;-74
2023/01/09 12:26:58;;;;;;;10.60;4.57;;;6.60;99.90;;;;;;5071152;28;20048;-74
2023/01/09 12:29:36;;;;;;;13.20;4.80;;;6.60;99.90;;;;;;5069988;28;20201;-75
2023/01/09 12:32:14;;;;;;;13.75;4.70;;;6.70;99.90;;;;;;5070683;28;20591;-78
2023/01/09 12:34:50;;;;;;;16.98;5.15;;;6.70;99.90;;;;;;5070463;28;20050;-77
2023/01/09 12:37:47;;;;;;;10.75;4.53;;;6.70;99.90;;;;;;5070304;28;20128;-76
2023/01/09 12:40:15;;;;;;;13.70;5.28;;;6.70;99.90;;;;;;5070961;28;20092;-75
2023/01/09 12:43:24;;;;;;;13.48;5.32;;;6.70;99.90;;;;;;5069469;28;20091;-76
2023/01/09 12:46:07;;;;;;;16.48;6.13;;;6.80;99.90;;;;;;5007708;28;20093;-76
2023/01/09 12:49:05;;;;;;;16.60;6.10;;;6.80;99.90;;;;;;5067957;28;20063;-77
2023/01/09 12:51:53;;;;;;;;;;;6.80;99.90;;;;;;5070546;28;20051;-75
2023/01/09 12:54:25;;;;;;;14.65;5.43;;;6.80;99.90;;;;;;5069853;28;20404;-77
2023/01/09 12:57:02;;;;;;;14.70;5.35;;;6.80;99.90;;;;;;5070017;28;20425;-76
2023/01/09 12:59:33;;;;;;;;;;;6.90;99.90;;;;;;5070985;28;20048;-78
2023/01/09 13:02:31;;;;;;;13.23;5.55;;;6.90;99.90;;;;;;5069858;28;19926;-78
2023/01/09 13:05:05;;;;;;;;;;;6.90;99.90;;;;;;5069464;28;20048;-78
2023/01/09 13:07:41;;;;;;;15.00;6.13;;;6.90;99.90;;;;;;5069749;28;19921;-73
2023/01/09 13:10:26;;;;;;;13.02;5.25;;;6.90;99.90;;;;;;5070343;28;20439;-73
2023/01/09 13:12:53;;;;;;;16.02;6.82;;;6.90;99.90;;;;;;5068965;28;20493;-73
2023/01/09 13:15:34;;;;;;;13.18;5.35;;;6.90;99.90;;;;;;5070390;28;20072;-73
2023/01/09 13:18:27;;;;;;;16.45;6.53;;;6.90;99.90;;;;;;5069827;28;20071;-72
2023/01/09 13:20:55;;;;;;;13.23;5.55;;;7.00;99.90;;;;;;5042404;28;20139;-73
2023/01/09 13:23:32;;;;;;;13.10;5.53;;;7.00;99.90;;;;;;5069082;28;20048;-73
2023/01/09 13:26:00;;;;;;;;;;;7.00;99.90;;;;;;5072728;28;20536;-72
2023/01/09 13:28:34;;;;;;;14.95;6.05;;;7.00;99.90;;;;;;5073293;28;20540;-72